Terminal Aerodrome Forecast
Issued by NWS Louisville, KY

Home | Current Version | Previous Version | Text Only | Print | Product List | Glossary On
Versions: 1 2 3 4 5 6 7 8 9 10 11 12 13 14 15 16 17 18
067
FTUS43 KLMK 212322
TAFBWG
TAF
KBWG 212322Z 2200/2224 00000KT P6SM SCT250
     FM220900 00000KT 5SM BR SCT250
     FM221300 VRB04KT P6SM SCT050=

USA.gov is the U.S. government's official web portal to all federal, state and local government web resources and services.